sensor_id;sensor_type;location;lat;lon;timestamp;temperature;humidity
28763;DHT22;15918;51.270;6.522;2023-03-04T00:00:27;8.10;61.00
28763;DHT22;15918;51.270;6.522;2023-03-04T00:02:53;8.10;60.90
28763;DHT22;15918;51.270;6.522;2023-03-04T00:05:18;8.10;60.90
28763;DHT22;15918;51.270;6.522;2023-03-04T00:07:44;8.10;61.00
28763;DHT22;15918;51.270;6.522;2023-03-04T00:10:10;8.10;60.90
28763;DHT22;15918;51.270;6.522;2023-03-04T00:12:35;8.10;60.90
28763;DHT22;15918;51.270;6.522;2023-03-04T00:15:01;8.10;60.90
28763;DHT22;15918;51.270;6.522;2023-03-04T00:17:27;8.10;61.00
28763;DHT22;15918;51.270;6.522;2023-03-04T00:19:54;8.10;60.90
28763;DHT22;15918;51.270;6.522;2023-03-04T00:22:20;8.10;60.90
28763;DHT22;15918;51.270;6.522;2023-03-04T00:24:45;8.10;61.00
28763;DHT22;15918;51.270;6.522;2023-03-04T00:27:11;8.10;60.90
28763;DHT22;15918;51.270;6.522;2023-03-04T00:29:36;8.20;61.00
28763;DHT22;15918;51.270;6.522;2023-03-04T00:32:02;8.10;61.00
28763;DHT22;15918;51.270;6.522;2023-03-04T00:34:27;8.10;61.70
28763;DHT22;15918;51.270;6.522;2023-03-04T00:36:53;8.10;61.00
28763;DHT22;15918;51.270;6.522;2023-03-04T00:39:19;8.10;61.00
28763;DHT22;15918;51.270;6.522;2023-03-04T00:41:44;8.10;61.10
28763;DHT22;15918;51.270;6.522;2023-03-04T00:44:10;8.10;61.00
28763;DHT22;15918;51.270;6.522;2023-03-04T00:46:35;8.10;61.00
28763;DHT22;15918;51.270;6.522;2023-03-04T00:49:01;8.10;61.10
28763;DHT22;15918;51.270;6.522;2023-03-04T00:51:26;8.10;61.10
28763;DHT22;15918;51.270;6.522;2023-03-04T00:53:52;8.10;61.10
28763;DHT22;15918;51.270;6.522;2023-03-04T00:56:17;8.10;61.10
28763;DHT22;15918;51.270;6.522;2023-03-04T00:58:43;8.10;61.10
28763;DHT22;15918;51.270;6.522;2023-03-04T01:01:08;8.10;61.10
28763;DHT22;15918;51.270;6.522;2023-03-04T01:03:34;8.10;61.10
28763;DHT22;15918;51.270;6.522;2023-03-04T01:05:59;8.10;61.10
28763;DHT22;15918;51.270;6.522;2023-03-04T01:08:25;8.10;61.10
28763;DHT22;15918;51.270;6.522;2023-03-04T01:10:50;8.10;61.10
28763;DHT22;15918;51.270;6.522;2023-03-04T01:13:16;8.10;61.10
28763;DHT22;15918;51.270;6.522;2023-03-04T01:15:41;8.10;61.10
28763;DHT22;15918;51.270;6.522;2023-03-04T01:18:07;8.10;61.10
28763;DHT22;15918;51.270;6.522;2023-03-04T01:20:33;8.10;61.10
28763;DHT22;15918;51.270;6.522;2023-03-04T01:22:58;8.10;61.10
28763;DHT22;15918;51.270;6.522;2023-03-04T01:25:24;8.10;61.10
28763;DHT22;15918;51.270;6.522;2023-03-04T01:27:49;8.10;61.10
28763;DHT22;15918;51.270;6.522;2023-03-04T01:30:15;8.10;61.10
28763;DHT22;15918;51.270;6.522;2023-03-04T01:32:40;8.10;61.20
28763;DHT22;15918;51.270;6.522;2023-03-04T01:35:06;8.10;61.10
28763;DHT22;15918;51.270;6.522;2023-03-04T01:37:32;8.10;61.10
28763;DHT22;15918;51.270;6.522;2023-03-04T01:39:57;8.10;61.20
28763;DHT22;15918;51.270;6.522;2023-03-04T01:42:23;8.10;61.10
28763;DHT22;15918;51.270;6.522;2023-03-04T01:44:50;8.10;61.20
28763;DHT22;15918;51.270;6.522;2023-03-04T01:47:16;8.10;61.20
28763;DHT22;15918;51.270;6.522;2023-03-04T01:49:42;8.10;61.20
28763;DHT22;15918;51.270;6.522;2023-03-04T01:52:11;8.10;61.20
28763;DHT22;15918;51.270;6.522;2023-03-04T01:54:37;8.10;61.20
28763;DHT22;15918;51.270;6.522;2023-03-04T01:57:05;8.10;61.20
28763;DHT22;15918;51.270;6.522;2023-03-04T01:59:31;8.10;61.90
28763;DHT22;15918;51.270;6.522;2023-03-04T02:01:58;8.10;61.10
28763;DHT22;15918;51.270;6.522;2023-03-04T02:04:27;8.10;61.20
28763;DHT22;15918;51.270;6.522;2023-03-04T02:06:53;8.20;61.20
28763;DHT22;15918;51.270;6.522;2023-03-04T02:09:19;8.10;61.10
28763;DHT22;15918;51.270;6.522;2023-03-04T02:11:45;8.20;61.20
28763;DHT22;15918;51.270;6.522;2023-03-04T02:14:11;8.20;61.20
28763;DHT22;15918;51.270;6.522;2023-03-04T02:16:37;8.20;61.20
28763;DHT22;15918;51.270;6.522;2023-03-04T02:19:04;8.20;61.20
28763;DHT22;15918;51.270;6.522;2023-03-04T02:21:31;8.20;61.20
28763;DHT22;15918;51.270;6.522;2023-03-04T02:26:26;8.20;61.20
28763;DHT22;15918;51.270;6.522;2023-03-04T02:28:54;8.20;61.20
28763;DHT22;15918;51.270;6.522;2023-03-04T02:31:21;8.20;61.20
28763;DHT22;15918;51.270;6.522;2023-03-04T02:33:48;8.20;61.20
28763;DHT22;15918;51.270;6.522;2023-03-04T02:36:13;8.20;61.20
28763;DHT22;15918;51.270;6.522;2023-03-04T02:38:39;8.20;61.20
28763;DHT22;15918;51.270;6.522;2023-03-04T02:41:04;8.20;62.00
28763;DHT22;15918;51.270;6.522;2023-03-04T02:43:30;8.20;61.20
28763;DHT22;15918;51.270;6.522;2023-03-04T02:45:56;8.20;61.20
28763;DHT22;15918;51.270;6.522;2023-03-04T02:48:21;8.20;61.20
28763;DHT22;15918;51.270;6.522;2023-03-04T02:50:49;8.20;61.20
28763;DHT22;15918;51.270;6.522;2023-03-04T02:53:15;8.20;61.20
28763;DHT22;15918;51.270;6.522;2023-03-04T02:55:41;8.20;61.10
28763;DHT22;15918;51.270;6.522;2023-03-04T02:58:08;8.20;61.20
28763;DHT22;15918;51.270;6.522;2023-03-04T03:00:33;8.20;61.20
28763;DHT22;15918;51.270;6.522;2023-03-04T03:02:59;8.20;61.20
28763;DHT22;15918;51.270;6.522;2023-03-04T03:05:25;8.20;61.20
28763;DHT22;15918;51.270;6.522;2023-03-04T03:07:51;8.20;62.00
28763;DHT22;15918;51.270;6.522;2023-03-04T03:10:17;8.20;61.20
28763;DHT22;15918;51.270;6.522;2023-03-04T03:12:42;8.20;61.20
28763;DHT22;15918;51.270;6.522;2023-03-04T03:15:08;8.20;61.10
28763;DHT22;15918;51.270;6.522;2023-03-04T03:17:33;8.20;61.20
28763;DHT22;15918;51.270;6.522;2023-03-04T03:19:59;8.20;61.10
28763;DHT22;15918;51.270;6.522;2023-03-04T03:22:24;8.20;61.20
28763;DHT22;15918;51.270;6.522;2023-03-04T03:24:50;8.20;61.10
28763;DHT22;15918;51.270;6.522;2023-03-04T03:27:15;8.20;61.10
28763;DHT22;15918;51.270;6.522;2023-03-04T03:29:41;8.20;61.20
28763;DHT22;15918;51.270;6.522;2023-03-04T03:32:06;8.20;61.10
28763;DHT22;15918;51.270;6.522;2023-03-04T03:34:32;8.20;61.10
28763;DHT22;15918;51.270;6.522;2023-03-04T03:36:57;8.20;61.10
28763;DHT22;15918;51.270;6.522;2023-03-04T03:39:23;8.20;61.10
28763;DHT22;15918;51.270;6.522;2023-03-04T03:41:48;8.20;61.10
28763;DHT22;15918;51.270;6.522;2023-03-04T03:44:14;8.20;61.10
28763;DHT22;15918;51.270;6.522;2023-03-04T03:46:40;8.20;61.10
28763;DHT22;15918;51.270;6.522;2023-03-04T03:49:05;8.20;61.10
28763;DHT22;15918;51.270;6.522;2023-03-04T03:51:31;8.20;61.20
28763;DHT22;15918;51.270;6.522;2023-03-04T03:53:56;8.20;61.20
28763;DHT22;15918;51.270;6.522;2023-03-04T03:56:22;8.20;61.10
28763;DHT22;15918;51.270;6.522;2023-03-04T03:58:47;8.20;61.20
28763;DHT22;15918;51.270;6.522;2023-03-04T04:01:13;8.20;61.10
28763;DHT22;15918;51.270;6.522;2023-03-04T04:03:38;8.20;61.20
28763;DHT22;15918;51.270;6.522;2023-03-04T04:06:04;8.20;61.20
28763;DHT22;15918;51.270;6.522;2023-03-04T04:08:30;8.20;61.20
28763;DHT22;15918;51.270;6.522;2023-03-04T04:10:55;8.20;61.20
28763;DHT22;15918;51.270;6.522;2023-03-04T04:13:20;8.20;61.20
28763;DHT22;15918;51.270;6.522;2023-03-04T04:15:46;8.20;61.20
28763;DHT22;15918;51.270;6.522;2023-03-04T04:18:12;8.20;61.20
28763;DHT22;15918;51.270;6.522;2023-03-04T04:20:37;8.20;61.20
28763;DHT22;15918;51.270;6.522;2023-03-04T04:23:03;8.20;61.20
28763;DHT22;15918;51.270;6.522;2023-03-04T04:25:28;8.20;61.20
28763;DHT22;15918;51.270;6.522;2023-03-04T04:27:54;8.20;61.20
28763;DHT22;15918;51.270;6.522;2023-03-04T04:30:19;8.20;61.20
28763;DHT22;15918;51.270;6.522;2023-03-04T04:32:45;8.20;61.20
28763;DHT22;15918;51.270;6.522;2023-03-04T04:35:10;8.20;61.20
28763;DHT22;15918;51.270;6.522;2023-03-04T04:37:36;8.20;61.20
28763;DHT22;15918;51.270;6.522;2023-03-04T04:40:02;8.20;61.20
28763;DHT22;15918;51.270;6.522;2023-03-04T04:42:27;8.20;61.20
28763;DHT22;15918;51.270;6.522;2023-03-04T04:44:53;8.20;61.20
28763;DHT22;15918;51.270;6.522;2023-03-04T04:47:18;8.20;61.20
28763;DHT22;15918;51.270;6.522;2023-03-04T04:49:44;8.20;61.20
28763;DHT22;15918;51.270;6.522;2023-03-04T04:52:09;8.20;61.20
28763;DHT22;15918;51.270;6.522;2023-03-04T04:54:35;8.30;61.30
28763;DHT22;15918;51.270;6.522;2023-03-04T04:57:00;8.20;61.30
28763;DHT22;15918;51.270;6.522;2023-03-04T04:59:26;8.30;61.30
28763;DHT22;15918;51.270;6.522;2023-03-04T05:01:51;8.30;61.30
28763;DHT22;15918;51.270;6.522;2023-03-04T05:04:17;8.20;61.20
28763;DHT22;15918;51.270;6.522;2023-03-04T05:06:42;8.30;61.30
28763;DHT22;15918;51.270;6.522;2023-03-04T05:09:08;8.30;61.30
28763;DHT22;15918;51.270;6.522;2023-03-04T05:11:33;8.20;61.30
28763;DHT22;15918;51.270;6.522;2023-03-04T05:13:59;8.20;61.30
28763;DHT22;15918;51.270;6.522;2023-03-04T05:16:24;8.30;61.30
28763;DHT22;15918;51.270;6.522;2023-03-04T05:18:50;8.30;61.30
28763;DHT22;15918;51.270;6.522;2023-03-04T05:21:15;8.30;61.30
28763;DHT22;15918;51.270;6.522;2023-03-04T05:23:41;8.30;61.30
28763;DHT22;15918;51.270;6.522;2023-03-04T05:26:08;8.20;61.20
28763;DHT22;15918;51.270;6.522;2023-03-04T05:28:33;8.30;61.30
28763;DHT22;15918;51.270;6.522;2023-03-04T05:30:59;8.30;61.30
28763;DHT22;15918;51.270;6.522;2023-03-04T05:33:25;8.30;61.30
28763;DHT22;15918;51.270;6.522;2023-03-04T05:35:50;8.30;61.30
28763;DHT22;15918;51.270;6.522;2023-03-04T05:38:17;8.20;61.20
28763;DHT22;15918;51.270;6.522;2023-03-04T05:40:43;8.30;61.30
28763;DHT22;15918;51.270;6.522;2023-03-04T05:43:09;8.30;61.30
28763;DHT22;15918;51.270;6.522;2023-03-04T05:45:34;8.20;61.20
28763;DHT22;15918;51.270;6.522;2023-03-04T05:48:00;8.30;61.30
28763;DHT22;15918;51.270;6.522;2023-03-04T05:50:26;8.30;61.30
28763;DHT22;15918;51.270;6.522;2023-03-04T05:52:52;8.20;61.20
28763;DHT22;15918;51.270;6.522;2023-03-04T05:55:17;8.30;61.30
28763;DHT22;15918;51.270;6.522;2023-03-04T05:57:43;8.30;61.30
28763;DHT22;15918;51.270;6.522;2023-03-04T06:00:08;8.30;61.30
28763;DHT22;15918;51.270;6.522;2023-03-04T06:02:35;8.30;61.30
28763;DHT22;15918;51.270;6.522;2023-03-04T06:05:00;8.30;61.30
28763;DHT22;15918;51.270;6.522;2023-03-04T06:07:26;8.30;61.30
28763;DHT22;15918;51.270;6.522;2023-03-04T06:09:51;8.20;61.30
28763;DHT22;15918;51.270;6.522;2023-03-04T06:12:17;8.30;61.30
28763;DHT22;15918;51.270;6.522;2023-03-04T06:14:42;8.30;61.30
28763;DHT22;15918;51.270;6.522;2023-03-04T06:17:08;8.30;61.30
28763;DHT22;15918;51.270;6.522;2023-03-04T06:19:33;8.30;61.30
28763;DHT22;15918;51.270;6.522;2023-03-04T06:21:59;8.30;61.30
28763;DHT22;15918;51.270;6.522;2023-03-04T06:24:24;8.30;61.30
28763;DHT22;15918;51.270;6.522;2023-03-04T06:26:52;8.30;61.30
28763;DHT22;15918;51.270;6.522;2023-03-04T06:29:18;8.30;61.30
28763;DHT22;15918;51.270;6.522;2023-03-04T06:31:43;8.30;61.30
28763;DHT22;15918;51.270;6.522;2023-03-04T06:34:08;8.30;61.40
28763;DHT22;15918;51.270;6.522;2023-03-04T06:36:34;8.30;61.40
28763;DHT22;15918;51.270;6.522;2023-03-04T06:39:06;8.30;61.40
28763;DHT22;15918;51.270;6.522;2023-03-04T06:41:32;8.30;61.40
28763;DHT22;15918;51.270;6.522;2023-03-04T06:43:58;8.30;61.40
28763;DHT22;15918;51.270;6.522;2023-03-04T06:46:23;8.30;61.40
28763;DHT22;15918;51.270;6.522;2023-03-04T06:48:49;8.30;61.50
28763;DHT22;15918;51.270;6.522;2023-03-04T06:51:14;8.30;61.40
28763;DHT22;15918;51.270;6.522;2023-03-04T06:53:40;8.30;61.40
28763;DHT22;15918;51.270;6.522;2023-03-04T06:56:06;8.30;61.40
28763;DHT22;15918;51.270;6.522;2023-03-04T06:58:32;8.30;61.40
28763;DHT22;15918;51.270;6.522;2023-03-04T07:01:08;8.30;61.40
28763;DHT22;15918;51.270;6.522;2023-03-04T07:03:34;8.30;61.50
28763;DHT22;15918;51.270;6.522;2023-03-04T07:05:59;8.30;61.50
28763;DHT22;15918;51.270;6.522;2023-03-04T07:08:25;8.30;61.50
28763;DHT22;15918;51.270;6.522;2023-03-04T07:10:50;8.30;61.40
28763;DHT22;15918;51.270;6.522;2023-03-04T07:13:15;8.30;61.50
28763;DHT22;15918;51.270;6.522;2023-03-04T07:15:41;8.30;61.50
28763;DHT22;15918;51.270;6.522;2023-03-04T07:18:06;8.30;61.50
28763;DHT22;15918;51.270;6.522;2023-03-04T07:20:32;8.30;61.50
28763;DHT22;15918;51.270;6.522;2023-03-04T07:22:57;8.30;61.50
28763;DHT22;15918;51.270;6.522;2023-03-04T07:25:23;8.30;61.50
28763;DHT22;15918;51.270;6.522;2023-03-04T07:27:48;8.30;61.50
28763;DHT22;15918;51.270;6.522;2023-03-04T07:30:14;8.30;61.50
28763;DHT22;15918;51.270;6.522;2023-03-04T07:32:39;8.30;61.50
28763;DHT22;15918;51.270;6.522;2023-03-04T07:35:05;8.30;61.50
28763;DHT22;15918;51.270;6.522;2023-03-04T07:37:30;8.30;61.50
28763;DHT22;15918;51.270;6.522;2023-03-04T07:39:56;8.30;61.50
28763;DHT22;15918;51.270;6.522;2023-03-04T07:42:21;8.30;61.50
28763;DHT22;15918;51.270;6.522;2023-03-04T07:44:47;8.30;61.50
28763;DHT22;15918;51.270;6.522;2023-03-04T07:47:12;8.30;61.50
28763;DHT22;15918;51.270;6.522;2023-03-04T07:49:38;8.30;61.60
28763;DHT22;15918;51.270;6.522;2023-03-04T07:52:03;8.30;61.50
28763;DHT22;15918;51.270;6.522;2023-03-04T07:54:29;8.30;61.60
28763;DHT22;15918;51.270;6.522;2023-03-04T07:56:55;8.30;61.60
28763;DHT22;15918;51.270;6.522;2023-03-04T07:59:20;8.40;61.60
28763;DHT22;15918;51.270;6.522;2023-03-04T08:01:46;8.40;61.60
28763;DHT22;15918;51.270;6.522;2023-03-04T08:04:11;8.40;61.60
28763;DHT22;15918;51.270;6.522;2023-03-04T08:06:38;8.30;61.60
28763;DHT22;15918;51.270;6.522;2023-03-04T08:09:04;8.30;62.40
28763;DHT22;15918;51.270;6.522;2023-03-04T08:11:30;8.30;61.60
28763;DHT22;15918;51.270;6.522;2023-03-04T08:13:57;8.30;61.60
28763;DHT22;15918;51.270;6.522;2023-03-04T08:16:22;8.40;61.70
28763;DHT22;15918;51.270;6.522;2023-03-04T08:18:49;8.30;61.70
28763;DHT22;15918;51.270;6.522;2023-03-04T08:21:16;8.40;61.70
28763;DHT22;15918;51.270;6.522;2023-03-04T08:23:43;8.30;61.70
28763;DHT22;15918;51.270;6.522;2023-03-04T08:26:21;8.30;61.70
28763;DHT22;15918;51.270;6.522;2023-03-04T08:28:46;8.40;61.80
28763;DHT22;15918;51.270;6.522;2023-03-04T08:31:12;8.40;61.80
28763;DHT22;15918;51.270;6.522;2023-03-04T08:33:38;8.40;61.80
28763;DHT22;15918;51.270;6.522;2023-03-04T08:36:03;8.40;61.70
28763;DHT22;15918;51.270;6.522;2023-03-04T08:38:29;8.40;61.80
28763;DHT22;15918;51.270;6.522;2023-03-04T08:40:56;8.50;61.80
28763;DHT22;15918;51.270;6.522;2023-03-04T08:43:22;8.40;61.80
28763;DHT22;15918;51.270;6.522;2023-03-04T08:45:48;8.40;61.80
28763;DHT22;15918;51.270;6.522;2023-03-04T08:48:14;8.50;61.90
28763;DHT22;15918;51.270;6.522;2023-03-04T08:50:40;8.40;61.80
28763;DHT22;15918;51.270;6.522;2023-03-04T08:53:05;8.50;61.90
28763;DHT22;15918;51.270;6.522;2023-03-04T08:55:31;8.50;61.90
28763;DHT22;15918;51.270;6.522;2023-03-04T08:57:56;8.50;61.90
28763;DHT22;15918;51.270;6.522;2023-03-04T09:00:22;8.50;61.90
28763;DHT22;15918;51.270;6.522;2023-03-04T09:02:48;8.50;61.90
28763;DHT22;15918;51.270;6.522;2023-03-04T09:05:13;8.50;61.90
28763;DHT22;15918;51.270;6.522;2023-03-04T09:07:39;8.50;61.90
28763;DHT22;15918;51.270;6.522;2023-03-04T09:10:04;8.60;62.00
28763;DHT22;15918;51.270;6.522;2023-03-04T09:12:30;8.60;61.90
28763;DHT22;15918;51.270;6.522;2023-03-04T09:14:56;8.60;62.00
28763;DHT22;15918;51.270;6.522;2023-03-04T09:17:21;8.70;62.00
28763;DHT22;15918;51.270;6.522;2023-03-04T09:19:47;8.70;62.00
28763;DHT22;15918;51.270;6.522;2023-03-04T09:22:12;8.70;62.00
28763;DHT22;15918;51.270;6.522;2023-03-04T09:24:38;8.70;62.00
28763;DHT22;15918;51.270;6.522;2023-03-04T09:27:03;8.70;62.00
28763;DHT22;15918;51.270;6.522;2023-03-04T09:29:28;8.70;62.00
28763;DHT22;15918;51.270;6.522;2023-03-04T09:31:54;8.70;62.00
28763;DHT22;15918;51.270;6.522;2023-03-04T09:34:19;8.70;62.00
28763;DHT22;15918;51.270;6.522;2023-03-04T09:36:45;8.80;62.00
28763;DHT22;15918;51.270;6.522;2023-03-04T09:39:11;8.80;62.00
28763;DHT22;15918;51.270;6.522;2023-03-04T09:41:41;8.80;62.00
28763;DHT22;15918;51.270;6.522;2023-03-04T09:44:49;8.80;61.90
28763;DHT22;15918;51.270;6.522;2023-03-04T09:47:03;8.80;61.90
28763;DHT22;15918;51.270;6.522;2023-03-04T09:49:30;8.80;62.00
28763;DHT22;15918;51.270;6.522;2023-03-04T09:51:58;8.90;62.00
28763;DHT22;15918;51.270;6.522;2023-03-04T09:56:56;8.90;62.00
28763;DHT22;15918;51.270;6.522;2023-03-04T09:59:33;8.90;62.10
28763;DHT22;15918;51.270;6.522;2023-03-04T10:02:06;8.90;62.10
28763;DHT22;15918;51.270;6.522;2023-03-04T10:04:41;8.90;62.00
28763;DHT22;15918;51.270;6.522;2023-03-04T10:07:13;9.00;62.10
28763;DHT22;15918;51.270;6.522;2023-03-04T10:09:45;9.00;62.10
28763;DHT22;15918;51.270;6.522;2023-03-04T10:12:15;9.00;62.10
28763;DHT22;15918;51.270;6.522;2023-03-04T10:14:44;9.00;62.10
28763;DHT22;15918;51.270;6.522;2023-03-04T10:17:57;9.10;62.20
28763;DHT22;15918;51.270;6.522;2023-03-04T10:20:04;9.00;62.10
28763;DHT22;15918;51.270;6.522;2023-03-04T10:27:40;9.10;62.10
28763;DHT22;15918;51.270;6.522;2023-03-04T10:30:11;9.10;62.10
28763;DHT22;15918;51.270;6.522;2023-03-04T10:32:44;9.10;62.10
28763;DHT22;15918;51.270;6.522;2023-03-04T10:35:11;9.10;62.10
28763;DHT22;15918;51.270;6.522;2023-03-04T10:37:46;9.20;62.20
28763;DHT22;15918;51.270;6.522;2023-03-04T10:40:23;9.20;62.10
28763;DHT22;15918;51.270;6.522;2023-03-04T10:42:50;9.20;62.10
28763;DHT22;15918;51.270;6.522;2023-03-04T10:45:23;9.20;62.90
28763;DHT22;15918;51.270;6.522;2023-03-04T10:47:53;9.20;62.10
28763;DHT22;15918;51.270;6.522;2023-03-04T10:50:22;9.20;62.10
28763;DHT22;15918;51.270;6.522;2023-03-04T10:52:48;9.20;62.10
28763;DHT22;15918;51.270;6.522;2023-03-04T10:55:19;9.20;62.10
28763;DHT22;15918;51.270;6.522;2023-03-04T10:57:50;9.20;62.10
28763;DHT22;15918;51.270;6.522;2023-03-04T11:02:42;9.30;62.20
28763;DHT22;15918;51.270;6.522;2023-03-04T11:07:48;9.30;62.20
28763;DHT22;15918;51.270;6.522;2023-03-04T11:10:18;9.30;62.10
28763;DHT22;15918;51.270;6.522;2023-03-04T11:12:48;9.40;62.20
28763;DHT22;15918;51.270;6.522;2023-03-04T11:15:18;9.40;62.20
28763;DHT22;15918;51.270;6.522;2023-03-04T11:17:46;9.40;62.20
28763;DHT22;15918;51.270;6.522;2023-03-04T11:20:17;9.40;62.20
28763;DHT22;15918;51.270;6.522;2023-03-04T11:22:46;9.40;62.20
28763;DHT22;15918;51.270;6.522;2023-03-04T11:25:33;9.40;62.10
28763;DHT22;15918;51.270;6.522;2023-03-04T11:27:58;9.50;62.20
28763;DHT22;15918;51.270;6.522;2023-03-04T11:32:55;9.50;62.20
28763;DHT22;15918;51.270;6.522;2023-03-04T11:35:26;9.50;62.10
28763;DHT22;15918;51.270;6.522;2023-03-04T11:45:29;9.60;62.20
28763;DHT22;15918;51.270;6.522;2023-03-04T11:55:39;9.60;62.30
28763;DHT22;15918;51.270;6.522;2023-03-04T12:03:13;9.60;62.30
28763;DHT22;15918;51.270;6.522;2023-03-04T12:05:59;9.60;62.30
28763;DHT22;15918;51.270;6.522;2023-03-04T12:26:41;9.70;62.30
28763;DHT22;15918;51.270;6.522;2023-03-04T12:29:51;9.80;62.40
28763;DHT22;15918;51.270;6.522;2023-03-04T12:34:40;9.80;62.40
28763;DHT22;15918;51.270;6.522;2023-03-04T12:37:19;9.80;62.40
28763;DHT22;15918;51.270;6.522;2023-03-04T12:39:55;9.80;62.50
28763;DHT22;15918;51.270;6.522;2023-03-04T12:45:14;9.80;62.50
28763;DHT22;15918;51.270;6.522;2023-03-04T12:55:36;9.80;62.40
28763;DHT22;15918;51.270;6.522;2023-03-04T12:58:03;9.90;62.50
28763;DHT22;15918;51.270;6.522;2023-03-04T13:00:34;9.80;62.40
28763;DHT22;15918;51.270;6.522;2023-03-04T13:10:32;9.90;62.50
28763;DHT22;15918;51.270;6.522;2023-03-04T13:12:58;9.90;62.50
28763;DHT22;15918;51.270;6.522;2023-03-04T13:20:19;9.90;62.50
28763;DHT22;15918;51.270;6.522;2023-03-04T13:41:06;10.00;62.60
28763;DHT22;15918;51.270;6.522;2023-03-04T13:53:42;10.00;62.60
28763;DHT22;15918;51.270;6.522;2023-03-04T13:58:42;10.00;62.70
28763;DHT22;15918;51.270;6.522;2023-03-04T14:01:25;10.00;62.70
28763;DHT22;15918;51.270;6.522;2023-03-04T14:03:51;10.00;63.40
28763;DHT22;15918;51.270;6.522;2023-03-04T14:08:43;10.00;62.70
28763;DHT22;15918;51.270;6.522;2023-03-04T14:11:10;10.00;62.70
28763;DHT22;15918;51.270;6.522;2023-03-04T14:13:37;10.00;62.70
28763;DHT22;15918;51.270;6.522;2023-03-04T14:16:02;10.00;62.70
28763;DHT22;15918;51.270;6.522;2023-03-04T14:18:28;10.00;62.70
28763;DHT22;15918;51.270;6.522;2023-03-04T14:20:53;10.00;62.70
28763;DHT22;15918;51.270;6.522;2023-03-04T14:25:48;10.00;62.70
28763;DHT22;15918;51.270;6.522;2023-03-04T14:28:15;10.00;62.70
28763;DHT22;15918;51.270;6.522;2023-03-04T14:30:41;10.10;62.80
28763;DHT22;15918;51.270;6.522;2023-03-04T14:33:08;10.10;62.80
28763;DHT22;15918;51.270;6.522;2023-03-04T14:35:34;10.00;62.80
28763;DHT22;15918;51.270;6.522;2023-03-04T14:38:01;10.00;62.80
28763;DHT22;15918;51.270;6.522;2023-03-04T14:40:29;10.10;62.90
28763;DHT22;15918;51.270;6.522;2023-03-04T14:43:03;10.00;62.80
28763;DHT22;15918;51.270;6.522;2023-03-04T14:45:29;10.00;62.90
28763;DHT22;15918;51.270;6.522;2023-03-04T14:47:56;10.10;62.90
28763;DHT22;15918;51.270;6.522;2023-03-04T14:50:23;10.00;62.90
28763;DHT22;15918;51.270;6.522;2023-03-04T14:52:49;10.10;63.00
28763;DHT22;15918;51.270;6.522;2023-03-04T14:57:51;10.10;63.00
28763;DHT22;15918;51.270;6.522;2023-03-04T15:02:48;10.10;63.00
28763;DHT22;15918;51.270;6.522;2023-03-04T15:05:18;10.10;63.10
28763;DHT22;15918;51.270;6.522;2023-03-04T15:07:51;10.00;63.00
28763;DHT22;15918;51.270;6.522;2023-03-04T15:10:19;10.00;63.10
28763;DHT22;15918;51.270;6.522;2023-03-04T15:12:49;10.10;63.20
28763;DHT22;15918;51.270;6.522;2023-03-04T15:17:56;10.00;63.10
28763;DHT22;15918;51.270;6.522;2023-03-04T15:20:26;10.10;63.20
28763;DHT22;15918;51.270;6.522;2023-03-04T15:25:17;10.10;63.30
28763;DHT22;15918;51.270;6.522;2023-03-04T15:27:43;10.00;63.20
28763;DHT22;15918;51.270;6.522;2023-03-04T15:30:29;10.10;63.30
28763;DHT22;15918;51.270;6.522;2023-03-04T15:32:55;10.10;63.40
28763;DHT22;15918;51.270;6.522;2023-03-04T15:35:21;10.10;63.40
28763;DHT22;15918;51.270;6.522;2023-03-04T15:37:47;10.10;63.40
28763;DHT22;15918;51.270;6.522;2023-03-04T15:43:13;10.10;63.40
28763;DHT22;15918;51.270;6.522;2023-03-04T15:45:39;10.10;63.40
28763;DHT22;15918;51.270;6.522;2023-03-04T15:48:06;10.10;63.40
28763;DHT22;15918;51.270;6.522;2023-03-04T15:50:32;10.10;63.40
28763;DHT22;15918;51.270;6.522;2023-03-04T15:52:59;10.10;63.50
28763;DHT22;15918;51.270;6.522;2023-03-04T15:55:26;10.10;63.50
28763;DHT22;15918;51.270;6.522;2023-03-04T15:57:53;10.10;63.50
28763;DHT22;15918;51.270;6.522;2023-03-04T16:00:19;10.10;63.50
28763;DHT22;15918;51.270;6.522;2023-03-04T16:02:45;10.00;63.40
28763;DHT22;15918;51.270;6.522;2023-03-04T16:05:11;10.10;63.50
28763;DHT22;15918;51.270;6.522;2023-03-04T16:07:37;10.10;63.50
28763;DHT22;15918;51.270;6.522;2023-03-04T16:10:06;10.10;63.60
28763;DHT22;15918;51.270;6.522;2023-03-04T16:12:32;10.10;63.60
28763;DHT22;15918;51.270;6.522;2023-03-04T16:14:58;10.10;63.60
28763;DHT22;15918;51.270;6.522;2023-03-04T16:17:23;10.00;63.50
28763;DHT22;15918;51.270;6.522;2023-03-04T16:19:49;10.10;63.60
28763;DHT22;15918;51.270;6.522;2023-03-04T16:22:15;10.00;63.50
28763;DHT22;15918;51.270;6.522;2023-03-04T16:24:41;10.00;63.50
28763;DHT22;15918;51.270;6.522;2023-03-04T16:27:10;10.10;63.60
28763;DHT22;15918;51.270;6.522;2023-03-04T16:29:37;10.00;63.50
28763;DHT22;15918;51.270;6.522;2023-03-04T16:32:02;10.10;63.50
28763;DHT22;15918;51.270;6.522;2023-03-04T16:34:28;10.10;63.60
28763;DHT22;15918;51.270;6.522;2023-03-04T16:36:53;10.00;63.50
28763;DHT22;15918;51.270;6.522;2023-03-04T16:39:20;10.00;63.50
28763;DHT22;15918;51.270;6.522;2023-03-04T16:41:46;10.00;63.50
28763;DHT22;15918;51.270;6.522;2023-03-04T16:44:12;10.00;63.50
28763;DHT22;15918;51.270;6.522;2023-03-04T16:46:39;10.00;63.50
28763;DHT22;15918;51.270;6.522;2023-03-04T16:49:04;10.10;63.60
28763;DHT22;15918;51.270;6.522;2023-03-04T16:51:30;10.00;63.50
28763;DHT22;15918;51.270;6.522;2023-03-04T16:53:59;10.10;63.60
28763;DHT22;15918;51.270;6.522;2023-03-04T16:56:25;10.10;63.60
28763;DHT22;15918;51.270;6.522;2023-03-04T16:58:50;10.00;63.50
28763;DHT22;15918;51.270;6.522;2023-03-04T17:01:19;10.00;63.50
28763;DHT22;15918;51.270;6.522;2023-03-04T17:03:45;10.00;63.60
28763;DHT22;15918;51.270;6.522;2023-03-04T17:06:11;10.00;63.50
28763;DHT22;15918;51.270;6.522;2023-03-04T17:08:37;10.00;63.50
28763;DHT22;15918;51.270;6.522;2023-03-04T17:11:02;10.00;63.50
28763;DHT22;15918;51.270;6.522;2023-03-04T17:13:28;10.00;63.50
28763;DHT22;15918;51.270;6.522;2023-03-04T17:15:53;10.00;63.50
28763;DHT22;15918;51.270;6.522;2023-03-04T17:18:19;10.00;63.50
28763;DHT22;15918;51.270;6.522;2023-03-04T17:20:44;10.00;63.50
28763;DHT22;15918;51.270;6.522;2023-03-04T17:23:10;10.00;63.50
28763;DHT22;15918;51.270;6.522;2023-03-04T17:25:35;10.00;63.50
28763;DHT22;15918;51.270;6.522;2023-03-04T17:28:01;10.00;63.50
28763;DHT22;15918;51.270;6.522;2023-03-04T17:30:26;10.00;63.40
28763;DHT22;15918;51.270;6.522;2023-03-04T17:32:52;10.00;63.40
28763;DHT22;15918;51.270;6.522;2023-03-04T17:35:17;10.00;63.40
28763;DHT22;15918;51.270;6.522;2023-03-04T17:37:43;10.00;63.40
28763;DHT22;15918;51.270;6.522;2023-03-04T17:40:09;10.00;63.40
28763;DHT22;15918;51.270;6.522;2023-03-04T17:42:38;10.00;63.40
28763;DHT22;15918;51.270;6.522;2023-03-04T17:45:04;9.90;63.30
28763;DHT22;15918;51.270;6.522;2023-03-04T17:47:30;10.00;63.40
28763;DHT22;15918;51.270;6.522;2023-03-04T17:49:55;10.00;63.40